createdAt,value
2022-08-17T00:00:43.601Z,20.86
2022-08-17T00:03:10.017Z,20.85
2022-08-17T00:05:41.261Z,20.84
2022-08-17T00:08:09.668Z,20.83
2022-08-17T00:10:38.043Z,20.81
2022-08-17T00:13:08.028Z,20.79
2022-08-17T00:15:37.614Z,20.78
2022-08-17T00:19:01.433Z,20.76
2022-08-17T00:20:55.495Z,20.67
2022-08-17T00:23:24.168Z,20.65
2022-08-17T00:25:53.273Z,20.61
2022-08-17T00:28:21.850Z,20.57
2022-08-17T00:30:53.808Z,20.61
2022-08-17T00:33:24.695Z,20.58
2022-08-17T00:35:54.172Z,20.54
2022-08-17T00:38:22.536Z,20.44
2022-08-17T00:40:52.548Z,20.40
2022-08-17T00:43:28.796Z,20.47
2022-08-17T00:45:59.158Z,20.43
2022-08-17T00:48:30.175Z,20.38
2022-08-17T00:51:03.395Z,20.34
2022-08-17T00:53:31.959Z,20.28
2022-08-17T00:56:01.885Z,20.23
2022-08-17T00:58:36.131Z,20.18
2022-08-17T01:01:07.212Z,20.19
2022-08-17T01:03:35.952Z,20.19
2022-08-17T01:06:05.167Z,20.21
2022-08-17T01:08:33.837Z,20.17
2022-08-17T01:11:04.073Z,20.11
2022-08-17T01:13:39.774Z,20.08
2022-08-17T01:16:15.889Z,20.07
2022-08-17T01:18:45.333Z,20.12
2022-08-17T01:21:19.387Z,20.13
2022-08-17T01:23:49.171Z,20.04
2022-08-17T01:26:19.178Z,19.98
2022-08-17T01:28:55.141Z,19.92
2022-08-17T01:31:25.790Z,19.85
2022-08-17T01:33:53.806Z,19.83
2022-08-17T01:36:22.125Z,19.88
2022-08-17T01:38:51.512Z,19.86
2022-08-17T01:41:20.417Z,19.80
2022-08-17T01:43:51.923Z,19.77
2022-08-17T01:46:24.228Z,19.72
2022-08-17T01:48:52.136Z,19.64
2022-08-17T01:51:21.114Z,19.59
2022-08-17T01:53:55.574Z,19.63
2022-08-17T01:56:24.705Z,19.64
2022-08-17T01:58:53.721Z,19.62
2022-08-17T02:01:25.028Z,19.53
2022-08-17T02:04:00.796Z,19.46
2022-08-17T02:06:31.472Z,19.49
2022-08-17T02:09:16.999Z,19.54
2022-08-17T02:11:46.231Z,19.47
2022-08-17T02:14:14.350Z,19.40
2022-08-17T02:16:43.118Z,19.35
2022-08-17T02:19:12.861Z,19.30
2022-08-17T02:21:42.162Z,19.27
2022-08-17T02:24:14.838Z,19.23
2022-08-17T02:26:44.610Z,19.23
2022-08-17T02:29:14.536Z,19.23
2022-08-17T02:31:42.593Z,19.26
2022-08-17T02:34:10.857Z,19.24
2022-08-17T02:36:39.052Z,19.23
2022-08-17T02:39:09.061Z,19.29
2022-08-17T02:41:37.511Z,19.28
2022-08-17T02:44:07.157Z,19.23
2022-08-17T02:46:35.113Z,19.14
2022-08-17T02:49:03.142Z,19.14
2022-08-17T02:51:31.047Z,19.11
2022-08-17T02:54:03.880Z,19.07
2022-08-17T02:56:46.931Z,19.05
2022-08-17T02:59:16.231Z,19.08
2022-08-17T03:01:44.226Z,19.07
2022-08-17T03:04:12.303Z,19.04
2022-08-17T03:06:40.358Z,19.00
2022-08-17T03:09:08.568Z,18.99
2022-08-17T03:11:36.523Z,18.96
2022-08-17T03:14:04.469Z,18.93
2022-08-17T03:16:33.885Z,18.86
2022-08-17T03:19:02.667Z,18.88
2022-08-17T03:21:30.632Z,18.85
2022-08-17T03:23:58.629Z,18.80
2022-08-17T03:26:29.649Z,18.77
2022-08-17T03:28:57.868Z,18.81
2022-08-17T03:31:25.822Z,18.82
2022-08-17T03:33:55.218Z,18.82
2022-08-17T03:36:23.152Z,18.78
2022-08-17T03:38:51.150Z,18.78
2022-08-17T03:41:19.169Z,18.81
2022-08-17T03:43:47.184Z,18.82
2022-08-17T03:46:35.237Z,18.85
2022-08-17T03:49:23.851Z,18.83
2022-08-17T03:52:09.630Z,18.80
2022-08-17T03:54:55.577Z,18.78
2022-08-17T03:57:23.716Z,18.72
2022-08-17T03:59:51.762Z,18.68
2022-08-17T04:02:21.969Z,18.66
2022-08-17T04:04:52.328Z,18.71
2022-08-17T04:07:21.248Z,18.73
2022-08-17T04:09:49.288Z,18.75
2022-08-17T04:12:18.289Z,18.83
2022-08-17T04:14:53.307Z,18.86
2022-08-17T04:17:24.368Z,18.89
2022-08-17T04:19:54.309Z,18.90
2022-08-17T04:22:32.421Z,18.93
2022-08-17T04:25:15.482Z,18.94
2022-08-17T04:27:43.500Z,18.91
2022-08-17T04:30:12.572Z,18.93
2022-08-17T04:33:05.090Z,18.87
2022-08-17T04:35:38.671Z,18.80
2022-08-17T04:38:06.885Z,18.82
2022-08-17T04:40:52.644Z,18.87
2022-08-17T04:43:22.388Z,18.93
2022-08-17T04:45:55.815Z,18.95
2022-08-17T04:48:28.087Z,18.99
2022-08-17T04:51:09.782Z,19.07
2022-08-17T04:53:38.671Z,19.20
2022-08-17T04:56:07.331Z,19.36
2022-08-17T04:58:35.335Z,19.41
2022-08-17T05:01:03.603Z,19.44
2022-08-17T05:03:31.925Z,19.54
2022-08-17T05:05:59.897Z,19.58
2022-08-17T05:08:29.303Z,19.59
2022-08-17T05:10:57.321Z,19.69
2022-08-17T05:13:27.055Z,19.84
2022-08-17T05:15:57.905Z,19.91
2022-08-17T05:18:26.977Z,20.10
2022-08-17T05:20:55.251Z,20.26
2022-08-17T05:23:25.732Z,20.42
2022-08-17T05:25:56.376Z,20.60
2022-08-17T05:28:27.536Z,20.74
2022-08-17T05:30:57.947Z,20.88
2022-08-17T05:33:27.719Z,20.98
2022-08-17T05:35:58.230Z,21.04
2022-08-17T05:38:28.773Z,21.17
2022-08-17T05:40:58.900Z,21.28
2022-08-17T05:43:29.239Z,21.45
2022-08-17T05:46:03.843Z,21.59
2022-08-17T05:48:39.924Z,21.79
2022-08-17T05:51:28.690Z,21.94
2022-08-17T05:54:06.451Z,22.11
2022-08-17T05:56:59.976Z,21.95
2022-08-17T05:59:36.718Z,21.67
2022-08-17T06:02:12.074Z,21.62
2022-08-17T06:04:52.261Z,21.46
2022-08-17T06:07:25.007Z,21.64
2022-08-17T06:10:00.339Z,21.75
2022-08-17T06:12:43.189Z,21.77
2022-08-17T06:15:15.235Z,21.84
2022-08-17T06:17:43.913Z,21.94
2022-08-17T06:20:14.303Z,22.06
2022-08-17T06:22:45.581Z,22.20
2022-08-17T06:25:15.686Z,22.14
2022-08-17T06:27:48.531Z,22.41
2022-08-17T06:30:24.665Z,22.50
2022-08-17T06:32:53.440Z,22.54
2022-08-17T06:35:31.773Z,22.61
2022-08-17T06:38:05.216Z,22.67
2022-08-17T06:40:52.228Z,22.77
2022-08-17T06:43:35.165Z,22.99
2022-08-17T06:46:07.707Z,23.16
2022-08-17T06:48:41.576Z,23.45
2022-08-17T06:51:18.548Z,23.69
2022-08-17T06:53:49.753Z,23.82
2022-08-17T06:56:24.613Z,23.89
2022-08-17T06:59:19.518Z,23.88
2022-08-17T07:01:48.349Z,24.17
2022-08-17T07:04:19.211Z,24.35
2022-08-17T07:06:50.883Z,24.56
2022-08-17T07:09:24.721Z,24.62
2022-08-17T07:11:54.599Z,24.84
2022-08-17T07:14:36.506Z,25.10
2022-08-17T07:17:08.732Z,25.35
2022-08-17T07:19:40.592Z,25.33
2022-08-17T07:22:18.059Z,25.25
2022-08-17T07:24:49.225Z,25.27
2022-08-17T07:27:21.880Z,25.26
2022-08-17T07:29:54.600Z,25.31
2022-08-17T07:32:26.385Z,25.62
2022-08-17T07:35:11.219Z,25.60
2022-08-17T07:37:40.435Z,25.73
2022-08-17T07:40:17.695Z,25.65
2022-08-17T07:43:02.182Z,25.91
2022-08-17T07:45:53.144Z,25.98
2022-08-17T07:48:23.838Z,26.02
2022-08-17T07:50:53.223Z,26.02
2022-08-17T07:53:24.445Z,26.07
2022-08-17T07:55:53.983Z,26.23
2022-08-17T07:58:24.479Z,26.14
2022-08-17T08:01:09.453Z,26.02
2022-08-17T08:03:42.778Z,26.02
2022-08-17T08:06:20.890Z,26.25
2022-08-17T08:08:52.851Z,26.38
2022-08-17T08:11:31.258Z,26.46
2022-08-17T08:14:19.515Z,26.90
2022-08-17T08:16:59.023Z,26.98
2022-08-17T08:19:27.216Z,27.06
2022-08-17T08:22:00.141Z,26.82
2022-08-17T08:24:50.174Z,27.18
2022-08-17T08:27:27.155Z,26.83
2022-08-17T08:29:58.753Z,27.04
2022-08-17T08:32:37.906Z,27.27
2022-08-17T08:35:09.711Z,27.19
2022-08-17T08:37:47.441Z,27.04
2022-08-17T08:40:30.286Z,27.22
2022-08-17T08:43:04.551Z,28.01
2022-08-17T08:45:39.519Z,28.10
2022-08-17T08:48:22.861Z,27.90
2022-08-17T08:51:11.731Z,27.68
2022-08-17T08:53:48.543Z,28.39
2022-08-17T08:56:21.894Z,28.11
2022-08-17T08:58:54.676Z,27.95
2022-08-17T09:01:29.351Z,28.16
2022-08-17T09:04:24.184Z,27.85
2022-08-17T09:07:02.228Z,28.00
2022-08-17T09:09:36.808Z,27.83
2022-08-17T09:12:09.866Z,27.88
2022-08-17T09:14:46.619Z,27.94
2022-08-17T09:17:18.357Z,28.10
2022-08-17T09:19:51.856Z,27.71
2022-08-17T09:22:26.694Z,27.62
2022-08-17T09:25:00.843Z,27.80
2022-08-17T09:27:33.251Z,28.03
2022-08-17T09:30:02.494Z,27.92
2022-08-17T09:32:35.815Z,27.62
2022-08-17T09:35:10.470Z,27.83
2022-08-17T09:37:45.088Z,27.61
2022-08-17T09:40:19.083Z,27.95
2022-08-17T09:42:50.118Z,28.33
2022-08-17T09:45:28.060Z,28.42
2022-08-17T09:48:00.537Z,28.15
2022-08-17T09:51:04.074Z,28.61
2022-08-17T09:53:20.303Z,28.81
2022-08-17T09:56:06.520Z,29.32
2022-08-17T09:58:41.650Z,29.40
2022-08-17T10:01:16.154Z,29.37
2022-08-17T10:04:00.277Z,28.96
2022-08-17T10:06:33.630Z,29.33
2022-08-17T10:09:08.362Z,29.29
2022-08-17T10:11:57.576Z,29.58
2022-08-17T10:14:37.671Z,29.50
2022-08-17T10:17:20.394Z,30.09
2022-08-17T10:19:55.394Z,30.06
2022-08-17T10:22:49.894Z,29.74
2022-08-17T10:25:53.910Z,29.37
2022-08-17T10:28:28.796Z,29.18
2022-08-17T10:31:30.992Z,29.51
2022-08-17T10:34:01.468Z,29.50
2022-08-17T10:36:40.321Z,29.49
2022-08-17T10:39:16.288Z,29.35
2022-08-17T10:41:46.711Z,28.85
2022-08-17T10:44:37.362Z,28.47
2022-08-17T10:47:11.323Z,28.63
2022-08-17T10:49:47.409Z,28.56
2022-08-17T10:52:48.608Z,28.39
2022-08-17T10:55:20.268Z,28.47
2022-08-17T10:57:50.623Z,28.66
2022-08-17T11:01:08.922Z,29.58
2022-08-17T11:03:37.016Z,30.28
2022-08-17T11:06:15.508Z,30.09
2022-08-17T11:09:24.443Z,29.91
2022-08-17T11:12:06.747Z,29.93
2022-08-17T11:14:45.063Z,30.23
2022-08-17T11:17:40.713Z,30.71
2022-08-17T11:20:38.032Z,29.73
2022-08-17T11:23:32.525Z,29.69
2022-08-17T11:26:08.248Z,29.24
2022-08-17T11:28:48.747Z,28.96
2022-08-17T11:31:38.952Z,28.89
2022-08-17T11:34:15.809Z,28.87
2022-08-17T11:37:01.477Z,29.32
2022-08-17T11:39:52.889Z,29.88
2022-08-17T11:42:31.508Z,29.68
2022-08-17T11:45:05.233Z,30.30
2022-08-17T11:48:23.637Z,30.12
2022-08-17T11:51:06.092Z,30.30
2022-08-17T11:57:00.451Z,30.39
2022-08-17T12:00:00.753Z,29.74
2022-08-17T12:02:48.087Z,30.35
2022-08-17T12:05:34.281Z,30.18
2022-08-17T12:08:18.691Z,31.01
2022-08-17T12:11:00.588Z,30.84
2022-08-17T12:13:30.591Z,31.46
2022-08-17T12:16:09.964Z,30.87
2022-08-17T12:18:39.774Z,30.63
2022-08-17T12:21:38.178Z,30.75
2022-08-17T12:24:15.804Z,31.35
2022-08-17T12:26:45.219Z,32.01
2022-08-17T12:29:18.206Z,31.60
2022-08-17T12:32:06.910Z,31.74
2022-08-17T12:34:37.008Z,31.20
2022-08-17T12:37:08.286Z,31.32
2022-08-17T12:39:36.287Z,30.80
2022-08-17T12:42:04.585Z,30.82
2022-08-17T12:44:33.724Z,30.40
2022-08-17T12:47:09.644Z,29.74
2022-08-17T12:49:39.354Z,30.31
2022-08-17T12:52:15.413Z,30.41
2022-08-17T12:54:53.458Z,29.39
2022-08-17T12:57:24.010Z,29.70
2022-08-17T12:59:55.100Z,29.58
2022-08-17T13:02:31.717Z,29.68
2022-08-17T13:05:01.848Z,29.41
2022-08-17T13:07:32.227Z,29.72
2022-08-17T13:10:00.188Z,30.29
2022-08-17T13:12:31.672Z,30.14
2022-08-17T13:14:59.938Z,30.12
2022-08-17T13:17:33.024Z,30.54
2022-08-17T13:20:01.244Z,30.24
2022-08-17T13:22:32.341Z,30.03
2022-08-17T13:25:05.488Z,30.35
2022-08-17T13:27:34.367Z,30.04
2022-08-17T13:30:05.183Z,30.80
2022-08-17T13:32:39.891Z,30.23
2022-08-17T13:35:41.378Z,30.27
2022-08-17T13:38:14.171Z,30.37
2022-08-17T13:40:50.225Z,29.87
2022-08-17T13:43:45.605Z,29.57
2022-08-17T13:46:24.563Z,28.74
2022-08-17T13:49:02.382Z,28.82
2022-08-17T13:51:34.043Z,29.04
2022-08-17T13:54:20.785Z,29.23
2022-08-17T13:56:59.253Z,29.61
2022-08-17T13:59:53.678Z,29.15
2022-08-17T14:02:27.672Z,29.35
2022-08-17T14:05:00.490Z,28.98
2022-08-17T14:07:34.716Z,28.90
2022-08-17T14:10:07.039Z,29.38
2022-08-17T14:12:35.596Z,30.31
2022-08-17T14:15:03.883Z,30.27
2022-08-17T14:17:37.911Z,31.15
2022-08-17T14:20:10.451Z,31.57
2022-08-17T14:22:41.712Z,31.59
2022-08-17T14:25:10.854Z,31.45
2022-08-17T14:27:51.876Z,31.49
2022-08-17T14:30:23.416Z,31.29
2022-08-17T14:32:52.177Z,31.64
2022-08-17T14:35:23.780Z,32.48
2022-08-17T14:37:52.804Z,32.82
2022-08-17T14:40:22.617Z,33.08
2022-08-17T14:42:50.925Z,33.29
2022-08-17T14:45:29.918Z,32.62
2022-08-17T14:48:01.452Z,32.70
2022-08-17T14:50:31.834Z,34.16
2022-08-17T14:53:01.352Z,33.77
2022-08-17T14:55:31.155Z,34.49
2022-08-17T14:57:59.217Z,34.42
2022-08-17T15:00:27.265Z,34.28
2022-08-17T15:02:58.358Z,34.12
2022-08-17T15:05:31.375Z,34.67
2022-08-17T15:08:01.920Z,34.65
2022-08-17T15:10:30.641Z,34.64
2022-08-17T15:12:58.767Z,35.22
2022-08-17T15:15:27.315Z,34.75
2022-08-17T15:17:55.369Z,34.75
2022-08-17T15:20:27.564Z,34.93
2022-08-17T15:22:57.200Z,35.13
2022-08-17T15:25:27.675Z,34.95
2022-08-17T15:27:56.256Z,34.81
2022-08-17T15:30:25.655Z,34.17
2022-08-17T15:32:55.560Z,33.74
2022-08-17T15:35:27.957Z,33.00
2022-08-17T15:38:06.222Z,32.85
2022-08-17T15:40:38.560Z,31.98
2022-08-17T15:43:07.455Z,31.85
2022-08-17T15:45:35.685Z,32.28
2022-08-17T15:48:05.552Z,32.13
2022-08-17T15:50:33.813Z,32.10
2022-08-17T15:53:03.577Z,31.71
2022-08-17T15:55:32.850Z,31.65
2022-08-17T15:58:02.159Z,31.79
2022-08-17T16:00:30.442Z,31.27
2022-08-17T16:03:46.977Z,30.92
2022-08-17T16:05:50.197Z,30.26
2022-08-17T16:08:21.411Z,30.31
2022-08-17T16:10:49.739Z,30.03
2022-08-17T16:13:19.628Z,30.03
2022-08-17T16:15:57.282Z,30.37
2022-08-17T16:18:27.357Z,30.50
2022-08-17T16:20:55.523Z,30.52
2022-08-17T16:23:23.522Z,30.63
2022-08-17T16:25:53.768Z,30.84
2022-08-17T16:28:35.612Z,31.09
2022-08-17T16:31:05.846Z,30.74
2022-08-17T16:33:37.583Z,31.27
2022-08-17T16:36:06.184Z,31.87
2022-08-17T16:38:34.236Z,31.93
2022-08-17T16:41:02.207Z,31.81
2022-08-17T16:43:31.545Z,31.25
2022-08-17T16:46:00.737Z,30.97
2022-08-17T16:48:28.874Z,30.58
2022-08-17T16:51:02.871Z,31.18
2022-08-17T16:53:32.570Z,31.58
2022-08-17T16:56:00.544Z,31.41
2022-08-17T16:58:29.047Z,30.95
2022-08-17T17:00:59.613Z,30.45
2022-08-17T17:03:29.196Z,31.03
2022-08-17T17:06:07.979Z,31.48
2022-08-17T17:08:43.616Z,31.48
2022-08-17T17:11:15.397Z,31.56
2022-08-17T17:13:47.733Z,31.57
2022-08-17T17:16:27.674Z,30.91
2022-08-17T17:19:10.309Z,30.94
2022-08-17T17:21:43.524Z,31.05
2022-08-17T17:24:15.564Z,31.21
2022-08-17T17:26:59.741Z,31.13
2022-08-17T17:29:48.603Z,31.07
2022-08-17T17:32:21.979Z,31.06
2022-08-17T17:34:58.791Z,31.00
2022-08-17T17:37:29.720Z,30.76
2022-08-17T17:40:01.477Z,30.51
2022-08-17T17:42:31.723Z,30.24
2022-08-17T17:45:05.683Z,30.19
2022-08-17T17:47:35.816Z,29.92
2022-08-17T17:50:06.442Z,29.54
2022-08-17T17:52:40.923Z,29.44
2022-08-17T17:55:18.546Z,29.24
2022-08-17T17:57:59.574Z,29.21
2022-08-17T18:00:33.091Z,28.99
2022-08-17T18:03:12.133Z,28.84
2022-08-17T18:05:48.915Z,28.67
2022-08-17T18:08:32.220Z,28.32
2022-08-17T18:11:14.538Z,28.17
2022-08-17T18:14:01.518Z,28.05
2022-08-17T18:16:32.137Z,27.98
2022-08-17T18:19:01.600Z,27.95
2022-08-17T18:21:35.931Z,27.72
2022-08-17T18:24:06.665Z,27.68
2022-08-17T18:26:45.051Z,27.60
2022-08-17T18:29:32.194Z,27.54
2022-08-17T18:32:31.086Z,27.38
2022-08-17T18:35:08.050Z,27.39
2022-08-17T18:37:44.873Z,27.36
2022-08-17T18:40:37.730Z,27.13
2022-08-17T18:43:15.497Z,27.06
2022-08-17T18:45:47.366Z,27.09
2022-08-17T18:48:23.006Z,27.07
2022-08-17T18:50:54.002Z,26.93
2022-08-17T18:53:40.628Z,26.90
2022-08-17T18:56:36.658Z,26.83
2022-08-17T18:59:23.584Z,26.81
2022-08-17T19:02:46.016Z,26.73
2022-08-17T19:05:27.833Z,26.76
2022-08-17T19:08:16.520Z,26.69
2022-08-17T19:10:47.332Z,26.55
2022-08-17T19:13:24.362Z,26.52
2022-08-17T19:16:14.612Z,26.46
2022-08-17T19:18:47.334Z,26.27
2022-08-17T19:21:17.935Z,26.24
2022-08-17T19:23:54.094Z,26.35
2022-08-17T19:26:53.450Z,26.25
2022-08-17T19:29:16.587Z,26.17
2022-08-17T19:31:47.901Z,26.04
2022-08-17T19:34:33.525Z,26.03
2022-08-17T19:37:06.833Z,25.95
2022-08-17T19:39:43.838Z,25.90
2022-08-17T19:42:15.307Z,25.87
2022-08-17T19:44:50.623Z,25.89
2022-08-17T19:47:50.898Z,25.84
2022-08-17T19:50:15.274Z,25.82
2022-08-17T19:52:48.394Z,25.72
2022-08-17T19:55:24.171Z,25.64
2022-08-17T19:58:03.353Z,25.79
2022-08-17T20:00:32.259Z,25.60
2022-08-17T20:03:06.162Z,25.49
2022-08-17T20:06:01.381Z,25.48
2022-08-17T20:08:28.614Z,25.36
2022-08-17T20:10:59.914Z,25.19
2022-08-17T20:13:33.225Z,25.23
2022-08-17T20:16:02.277Z,25.17
2022-08-17T20:18:47.512Z,25.15
2022-08-17T20:21:20.649Z,25.17
2022-08-17T20:23:54.267Z,25.20
2022-08-17T20:26:27.567Z,25.20
2022-08-17T20:29:37.497Z,25.10
2022-08-17T20:32:25.179Z,25.14
2022-08-17T20:35:26.397Z,25.02
2022-08-17T20:37:57.743Z,25.05
2022-08-17T20:40:31.554Z,24.86
2022-08-17T20:43:39.045Z,24.78
2022-08-17T20:46:26.766Z,24.71
2022-08-17T20:48:58.389Z,24.73
2022-08-17T20:51:30.388Z,24.72
2022-08-17T20:54:08.707Z,24.76
2022-08-17T20:56:51.956Z,24.74
2022-08-17T20:59:53.853Z,24.73
2022-08-17T21:02:24.999Z,24.58
2022-08-17T21:05:34.806Z,24.52
2022-08-17T21:08:14.134Z,24.49
2022-08-17T21:10:43.822Z,24.50
2022-08-17T21:13:45.772Z,24.62
2022-08-17T21:16:43.249Z,24.41
2022-08-17T21:19:22.397Z,24.43
2022-08-17T21:21:59.091Z,24.44
2022-08-17T21:24:36.819Z,24.29
2022-08-17T21:27:11.519Z,24.24
2022-08-17T21:29:53.444Z,24.28
2022-08-17T21:32:30.351Z,24.28
2022-08-17T21:35:28.905Z,24.10
2022-08-17T21:38:00.680Z,24.10
2022-08-17T21:40:30.900Z,24.13
2022-08-17T21:43:03.139Z,24.10
2022-08-17T21:45:35.062Z,24.15
2022-08-17T21:48:14.013Z,24.00
2022-08-17T21:50:45.470Z,24.05
2022-08-17T21:53:22.730Z,24.00
2022-08-17T21:55:51.358Z,24.09
2022-08-17T21:58:29.927Z,24.00
2022-08-17T22:01:13.965Z,23.89
2022-08-17T22:03:48.272Z,23.83
2022-08-17T22:06:24.330Z,23.90
2022-08-17T22:09:00.338Z,23.91
2022-08-17T22:11:28.478Z,23.73
2022-08-17T22:14:00.714Z,23.95
2022-08-17T22:16:33.750Z,23.76
2022-08-17T22:19:01.719Z,23.75
2022-08-17T22:21:31.107Z,23.74
2022-08-17T22:24:06.394Z,23.71
2022-08-17T22:27:00.941Z,23.69
2022-08-17T22:29:57.512Z,23.69
2022-08-17T22:32:38.351Z,23.54
2022-08-17T22:35:34.337Z,23.44
2022-08-17T22:38:32.473Z,23.37
2022-08-17T22:41:35.941Z,23.37
2022-08-17T22:44:24.004Z,23.22
2022-08-17T22:46:56.330Z,23.15
2022-08-17T22:49:29.245Z,23.17
2022-08-17T22:52:30.131Z,23.17
2022-08-17T22:55:26.822Z,23.02
2022-08-17T22:58:12.568Z,23.19
2022-08-17T23:00:43.105Z,23.02
2022-08-17T23:03:18.866Z,23.04
2022-08-17T23:05:48.822Z,22.91
2022-08-17T23:08:21.194Z,22.83
2022-08-17T23:10:50.561Z,22.98
2022-08-17T23:13:18.430Z,22.96
2022-08-17T23:15:48.073Z,22.91
2022-08-17T23:18:17.506Z,22.91
2022-08-17T23:20:46.011Z,22.87
2022-08-17T23:23:15.252Z,22.86
2022-08-17T23:25:46.302Z,22.96
2022-08-17T23:28:16.942Z,22.84
2022-08-17T23:30:46.577Z,22.73
2022-08-17T23:33:18.927Z,22.80
2022-08-17T23:35:46.802Z,22.78
2022-08-17T23:38:15.286Z,22.94
2022-08-17T23:40:43.275Z,22.81
2022-08-17T23:43:24.449Z,22.84
2022-08-17T23:45:55.296Z,22.97
2022-08-17T23:48:35.307Z,22.93
2022-08-17T23:51:09.095Z,22.91
2022-08-17T23:53:37.610Z,22.82
2022-08-17T23:56:10.163Z,22.88
2022-08-17T23:58:39.483Z,23.09
